sensor_id;sensor_type;location;lat;lon;timestamp;P1;durP1;ratioP1;P2;durP2;ratioP2
22965;SDS011;11649;48.090;9.754;2023-08-30T00:01:05;15.10;;;13.68;;
22965;SDS011;11649;48.090;9.754;2023-08-30T00:03:32;16.55;;;14.82;;
22965;SDS011;11649;48.090;9.754;2023-08-30T00:06:03;16.00;;;13.25;;
22965;SDS011;11649;48.090;9.754;2023-08-30T00:08:31;13.73;;;12.43;;
22965;SDS011;11649;48.090;9.754;2023-08-30T00:10:58;16.63;;;14.93;;
22965;SDS011;11649;48.090;9.754;2023-08-30T00:13:26;14.43;;;13.02;;
22965;SDS011;11649;48.090;9.754;2023-08-30T00:15:52;14.63;;;13.15;;
22965;SDS011;11649;48.090;9.754;2023-08-30T00:18:19;14.13;;;12.73;;
22965;SDS011;11649;48.090;9.754;2023-08-30T00:20:47;14.02;;;12.63;;
22965;SDS011;11649;48.090;9.754;2023-08-30T00:23:13;14.30;;;12.90;;
22965;SDS011;11649;48.090;9.754;2023-08-30T00:25:40;13.40;;;12.10;;
22965;SDS011;11649;48.090;9.754;2023-08-30T00:28:07;15.23;;;13.73;;
22965;SDS011;11649;48.090;9.754;2023-08-30T00:30:34;14.63;;;13.07;;
22965;SDS011;11649;48.090;9.754;2023-08-30T00:33:01;14.85;;;13.40;;
22965;SDS011;11649;48.090;9.754;2023-08-30T00:35:30;15.52;;;13.90;;
22965;SDS011;11649;48.090;9.754;2023-08-30T00:37:57;14.98;;;13.48;;
22965;SDS011;11649;48.090;9.754;2023-08-30T00:40:24;16.52;;;14.73;;
22965;SDS011;11649;48.090;9.754;2023-08-30T00:42:51;16.50;;;14.77;;
22965;SDS011;11649;48.090;9.754;2023-08-30T00:45:19;15.38;;;13.77;;
22965;SDS011;11649;48.090;9.754;2023-08-30T00:47:45;16.58;;;14.93;;
22965;SDS011;11649;48.090;9.754;2023-08-30T00:50:12;17.20;;;15.45;;
22965;SDS011;11649;48.090;9.754;2023-08-30T00:52:40;18.38;;;14.93;;
22965;SDS011;11649;48.090;9.754;2023-08-30T00:55:07;16.08;;;14.27;;
22965;SDS011;11649;48.090;9.754;2023-08-30T00:57:36;16.73;;;14.90;;
22965;SDS011;11649;48.090;9.754;2023-08-30T01:00:03;18.20;;;16.30;;
22965;SDS011;11649;48.090;9.754;2023-08-30T01:02:32;17.48;;;15.63;;
22965;SDS011;11649;48.090;9.754;2023-08-30T01:04:59;16.88;;;15.18;;
22965;SDS011;11649;48.090;9.754;2023-08-30T01:07:26;15.68;;;14.07;;
22965;SDS011;11649;48.090;9.754;2023-08-30T01:09:53;18.38;;;15.82;;
22965;SDS011;11649;48.090;9.754;2023-08-30T01:12:22;18.17;;;16.15;;
22965;SDS011;11649;48.090;9.754;2023-08-30T01:14:58;19.63;;;15.85;;
22965;SDS011;11649;48.090;9.754;2023-08-30T01:17:29;18.98;;;16.25;;
22965;SDS011;11649;48.090;9.754;2023-08-30T01:20:05;18.30;;;16.40;;
22965;SDS011;11649;48.090;9.754;2023-08-30T01:28:08;17.80;;;15.77;;
22965;SDS011;11649;48.090;9.754;2023-08-30T01:30:37;19.45;;;17.23;;
22965;SDS011;11649;48.090;9.754;2023-08-30T01:33:07;18.83;;;16.52;;
22965;SDS011;11649;48.090;9.754;2023-08-30T01:35:35;19.80;;;17.70;;
22965;SDS011;11649;48.090;9.754;2023-08-30T01:38:03;20.38;;;17.25;;
22965;SDS011;11649;48.090;9.754;2023-08-30T01:40:33;19.45;;;16.77;;
22965;SDS011;11649;48.090;9.754;2023-08-30T01:43:03;20.10;;;16.40;;
22965;SDS011;11649;48.090;9.754;2023-08-30T01:45:32;20.30;;;18.00;;
22965;SDS011;11649;48.090;9.754;2023-08-30T01:48:01;19.63;;;16.60;;
22965;SDS011;11649;48.090;9.754;2023-08-30T01:50:29;19.27;;;16.70;;
22965;SDS011;11649;48.090;9.754;2023-08-30T01:52:57;18.80;;;16.77;;
22965;SDS011;11649;48.090;9.754;2023-08-30T01:55:25;19.27;;;16.33;;
22965;SDS011;11649;48.090;9.754;2023-08-30T01:57:54;17.40;;;15.48;;
22965;SDS011;11649;48.090;9.754;2023-08-30T02:00:21;18.85;;;16.77;;
22965;SDS011;11649;48.090;9.754;2023-08-30T02:02:48;19.02;;;15.55;;
22965;SDS011;11649;48.090;9.754;2023-08-30T02:05:14;17.55;;;15.73;;
22965;SDS011;11649;48.090;9.754;2023-08-30T02:07:58;17.58;;;15.15;;
22965;SDS011;11649;48.090;9.754;2023-08-30T02:10:40;17.80;;;15.50;;
22965;SDS011;11649;48.090;9.754;2023-08-30T02:13:11;16.90;;;15.20;;
22965;SDS011;11649;48.090;9.754;2023-08-30T02:15:39;16.02;;;14.38;;
22965;SDS011;11649;48.090;9.754;2023-08-30T02:18:09;16.70;;;14.63;;
22965;SDS011;11649;48.090;9.754;2023-08-30T02:20:36;18.05;;;15.73;;
22965;SDS011;11649;48.090;9.754;2023-08-30T02:23:03;17.10;;;15.30;;
22965;SDS011;11649;48.090;9.754;2023-08-30T02:25:40;16.70;;;14.70;;
22965;SDS011;11649;48.090;9.754;2023-08-30T02:28:07;16.15;;;13.68;;
22965;SDS011;11649;48.090;9.754;2023-08-30T02:30:34;17.45;;;15.00;;
22965;SDS011;11649;48.090;9.754;2023-08-30T02:33:01;19.17;;;16.48;;
22965;SDS011;11649;48.090;9.754;2023-08-30T02:35:27;16.80;;;14.57;;
22965;SDS011;11649;48.090;9.754;2023-08-30T02:37:54;16.20;;;14.15;;
22965;SDS011;11649;48.090;9.754;2023-08-30T02:40:21;16.92;;;14.43;;
22965;SDS011;11649;48.090;9.754;2023-08-30T02:42:48;15.40;;;13.23;;
22965;SDS011;11649;48.090;9.754;2023-08-30T02:45:14;15.80;;;14.02;;
22965;SDS011;11649;48.090;9.754;2023-08-30T02:47:41;15.45;;;13.95;;
22965;SDS011;11649;48.090;9.754;2023-08-30T02:50:08;16.95;;;13.02;;
22965;SDS011;11649;48.090;9.754;2023-08-30T02:52:35;16.83;;;15.02;;
22965;SDS011;11649;48.090;9.754;2023-08-30T02:55:01;16.23;;;13.68;;
22965;SDS011;11649;48.090;9.754;2023-08-30T02:57:29;15.40;;;13.32;;
22965;SDS011;11649;48.090;9.754;2023-08-30T02:59:56;15.50;;;13.75;;
22965;SDS011;11649;48.090;9.754;2023-08-30T03:02:23;14.68;;;13.15;;
22965;SDS011;11649;48.090;9.754;2023-08-30T03:04:50;16.58;;;14.45;;
22965;SDS011;11649;48.090;9.754;2023-08-30T03:07:17;15.75;;;14.05;;
22965;SDS011;11649;48.090;9.754;2023-08-30T03:09:44;16.33;;;14.63;;
22965;SDS011;11649;48.090;9.754;2023-08-30T03:12:10;15.75;;;13.82;;
22965;SDS011;11649;48.090;9.754;2023-08-30T03:14:37;16.05;;;13.88;;
22965;SDS011;11649;48.090;9.754;2023-08-30T03:17:04;15.82;;;13.23;;
22965;SDS011;11649;48.090;9.754;2023-08-30T03:19:30;14.45;;;12.45;;
22965;SDS011;11649;48.090;9.754;2023-08-30T03:21:57;16.92;;;14.55;;
22965;SDS011;11649;48.090;9.754;2023-08-30T03:24:26;15.10;;;13.50;;
22965;SDS011;11649;48.090;9.754;2023-08-30T03:26:53;15.00;;;13.43;;
22965;SDS011;11649;48.090;9.754;2023-08-30T03:29:19;16.35;;;13.63;;
22965;SDS011;11649;48.090;9.754;2023-08-30T03:31:47;14.57;;;12.95;;
22965;SDS011;11649;48.090;9.754;2023-08-30T03:34:14;14.93;;;12.65;;
22965;SDS011;11649;48.090;9.754;2023-08-30T03:36:41;14.95;;;12.43;;
22965;SDS011;11649;48.090;9.754;2023-08-30T03:39:10;13.68;;;12.15;;
22965;SDS011;11649;48.090;9.754;2023-08-30T03:41:38;14.50;;;12.48;;
22965;SDS011;11649;48.090;9.754;2023-08-30T03:44:05;13.57;;;12.05;;
22965;SDS011;11649;48.090;9.754;2023-08-30T03:46:32;16.65;;;13.02;;
22965;SDS011;11649;48.090;9.754;2023-08-30T03:48:58;12.80;;;11.50;;
22965;SDS011;11649;48.090;9.754;2023-08-30T03:51:25;13.55;;;12.13;;
22965;SDS011;11649;48.090;9.754;2023-08-30T03:53:52;12.43;;;11.13;;
22965;SDS011;11649;48.090;9.754;2023-08-30T03:56:19;15.00;;;13.35;;
22965;SDS011;11649;48.090;9.754;2023-08-30T03:58:45;13.10;;;11.68;;
22965;SDS011;11649;48.090;9.754;2023-08-30T04:01:12;15.13;;;11.65;;
22965;SDS011;11649;48.090;9.754;2023-08-30T04:03:39;13.45;;;12.05;;
22965;SDS011;11649;48.090;9.754;2023-08-30T04:06:06;14.52;;;11.90;;
22965;SDS011;11649;48.090;9.754;2023-08-30T04:08:33;13.63;;;12.00;;
22965;SDS011;11649;48.090;9.754;2023-08-30T04:11:01;13.63;;;12.10;;
22965;SDS011;11649;48.090;9.754;2023-08-30T04:13:28;12.75;;;11.45;;
22965;SDS011;11649;48.090;9.754;2023-08-30T04:15:55;14.82;;;11.93;;
22965;SDS011;11649;48.090;9.754;2023-08-30T04:18:25;12.85;;;11.52;;
22965;SDS011;11649;48.090;9.754;2023-08-30T04:20:51;12.77;;;11.48;;
22965;SDS011;11649;48.090;9.754;2023-08-30T04:23:18;13.23;;;11.80;;
22965;SDS011;11649;48.090;9.754;2023-08-30T04:25:45;15.23;;;12.45;;
22965;SDS011;11649;48.090;9.754;2023-08-30T04:28:11;15.60;;;13.98;;
22965;SDS011;11649;48.090;9.754;2023-08-30T04:30:38;14.90;;;13.02;;
22965;SDS011;11649;48.090;9.754;2023-08-30T04:33:05;15.60;;;13.18;;
22965;SDS011;11649;48.090;9.754;2023-08-30T04:35:32;18.67;;;15.25;;
22965;SDS011;11649;48.090;9.754;2023-08-30T04:38:00;18.33;;;15.15;;
22965;SDS011;11649;48.090;9.754;2023-08-30T04:40:27;16.30;;;14.18;;
22965;SDS011;11649;48.090;9.754;2023-08-30T04:42:57;16.92;;;13.70;;
22965;SDS011;11649;48.090;9.754;2023-08-30T04:45:24;14.80;;;12.70;;
22965;SDS011;11649;48.090;9.754;2023-08-30T04:47:51;15.00;;;13.40;;
22965;SDS011;11649;48.090;9.754;2023-08-30T04:50:19;16.85;;;13.60;;
22965;SDS011;11649;48.090;9.754;2023-08-30T04:52:46;18.85;;;13.45;;
22965;SDS011;11649;48.090;9.754;2023-08-30T04:55:12;14.82;;;13.23;;
22965;SDS011;11649;48.090;9.754;2023-08-30T04:57:39;17.80;;;13.65;;
22965;SDS011;11649;48.090;9.754;2023-08-30T05:00:11;16.70;;;14.20;;
22965;SDS011;11649;48.090;9.754;2023-08-30T05:02:38;16.15;;;13.18;;
22965;SDS011;11649;48.090;9.754;2023-08-30T05:05:07;14.98;;;13.10;;
22965;SDS011;11649;48.090;9.754;2023-08-30T05:07:33;14.48;;;12.90;;
22965;SDS011;11649;48.090;9.754;2023-08-30T05:10:00;14.48;;;11.98;;
22965;SDS011;11649;48.090;9.754;2023-08-30T05:12:27;14.10;;;12.23;;
22965;SDS011;11649;48.090;9.754;2023-08-30T05:14:54;18.35;;;14.05;;
22965;SDS011;11649;48.090;9.754;2023-08-30T05:17:21;15.20;;;12.70;;
22965;SDS011;11649;48.090;9.754;2023-08-30T05:19:48;18.77;;;15.67;;
22965;SDS011;11649;48.090;9.754;2023-08-30T05:22:15;16.80;;;14.10;;
22965;SDS011;11649;48.090;9.754;2023-08-30T05:24:41;16.65;;;14.13;;
22965;SDS011;11649;48.090;9.754;2023-08-30T05:27:08;19.35;;;14.60;;
22965;SDS011;11649;48.090;9.754;2023-08-30T05:29:35;15.68;;;13.38;;
22965;SDS011;11649;48.090;9.754;2023-08-30T05:32:02;19.73;;;15.05;;
22965;SDS011;11649;48.090;9.754;2023-08-30T05:34:29;20.13;;;16.00;;
22965;SDS011;11649;48.090;9.754;2023-08-30T05:36:56;16.27;;;14.35;;
22965;SDS011;11649;48.090;9.754;2023-08-30T05:39:23;18.60;;;15.75;;
22965;SDS011;11649;48.090;9.754;2023-08-30T05:41:50;15.75;;;13.75;;
22965;SDS011;11649;48.090;9.754;2023-08-30T05:44:16;17.23;;;13.50;;
22965;SDS011;11649;48.090;9.754;2023-08-30T05:46:43;17.30;;;14.00;;
22965;SDS011;11649;48.090;9.754;2023-08-30T05:49:10;20.90;;;14.48;;
22965;SDS011;11649;48.090;9.754;2023-08-30T05:51:37;16.33;;;13.68;;
22965;SDS011;11649;48.090;9.754;2023-08-30T05:54:04;18.02;;;15.60;;
22965;SDS011;11649;48.090;9.754;2023-08-30T05:56:31;16.10;;;13.88;;
22965;SDS011;11649;48.090;9.754;2023-08-30T05:58:57;19.92;;;14.27;;
22965;SDS011;11649;48.090;9.754;2023-08-30T06:01:24;16.33;;;14.07;;
22965;SDS011;11649;48.090;9.754;2023-08-30T06:03:51;16.65;;;14.15;;
22965;SDS011;11649;48.090;9.754;2023-08-30T06:06:18;20.83;;;15.32;;
22965;SDS011;11649;48.090;9.754;2023-08-30T06:08:44;17.80;;;14.45;;
22965;SDS011;11649;48.090;9.754;2023-08-30T06:11:11;20.33;;;16.52;;
22965;SDS011;11649;48.090;9.754;2023-08-30T06:13:39;18.30;;;13.70;;
22965;SDS011;11649;48.090;9.754;2023-08-30T06:16:05;16.75;;;14.10;;
22965;SDS011;11649;48.090;9.754;2023-08-30T06:18:32;15.38;;;13.27;;
22965;SDS011;11649;48.090;9.754;2023-08-30T06:20:59;15.93;;;13.05;;
22965;SDS011;11649;48.090;9.754;2023-08-30T06:23:26;18.15;;;13.45;;
22965;SDS011;11649;48.090;9.754;2023-08-30T06:25:56;17.55;;;14.48;;
22965;SDS011;11649;48.090;9.754;2023-08-30T06:28:23;14.82;;;13.00;;
22965;SDS011;11649;48.090;9.754;2023-08-30T06:30:50;18.60;;;13.32;;
22965;SDS011;11649;48.090;9.754;2023-08-30T06:33:17;14.75;;;12.70;;
22965;SDS011;11649;48.090;9.754;2023-08-30T06:35:44;16.08;;;12.20;;
22965;SDS011;11649;48.090;9.754;2023-08-30T06:38:14;14.55;;;12.43;;
22965;SDS011;11649;48.090;9.754;2023-08-30T06:40:45;17.67;;;12.93;;
22965;SDS011;11649;48.090;9.754;2023-08-30T06:43:12;15.88;;;12.68;;
22965;SDS011;11649;48.090;9.754;2023-08-30T06:45:39;18.00;;;12.65;;
22965;SDS011;11649;48.090;9.754;2023-08-30T06:48:07;15.73;;;12.68;;
22965;SDS011;11649;48.090;9.754;2023-08-30T06:50:35;19.10;;;13.23;;
22965;SDS011;11649;48.090;9.754;2023-08-30T06:53:02;18.10;;;13.25;;
22965;SDS011;11649;48.090;9.754;2023-08-30T06:55:29;15.57;;;12.32;;
22965;SDS011;11649;48.090;9.754;2023-08-30T06:57:56;16.48;;;11.73;;
22965;SDS011;11649;48.090;9.754;2023-08-30T07:00:23;16.55;;;12.10;;
22965;SDS011;11649;48.090;9.754;2023-08-30T07:02:49;21.70;;;12.85;;
22965;SDS011;11649;48.090;9.754;2023-08-30T07:05:16;27.70;;;13.35;;
22965;SDS011;11649;48.090;9.754;2023-08-30T07:07:43;18.15;;;12.27;;
22965;SDS011;11649;48.090;9.754;2023-08-30T07:10:10;18.23;;;12.18;;
22965;SDS011;11649;48.090;9.754;2023-08-30T07:12:37;16.88;;;12.73;;
22965;SDS011;11649;48.090;9.754;2023-08-30T07:15:03;15.40;;;11.48;;
22965;SDS011;11649;48.090;9.754;2023-08-30T07:17:31;17.52;;;11.93;;
22965;SDS011;11649;48.090;9.754;2023-08-30T07:20:17;15.02;;;11.65;;
22965;SDS011;11649;48.090;9.754;2023-08-30T07:22:44;11.77;;;10.57;;
22965;SDS011;11649;48.090;9.754;2023-08-30T07:25:11;15.38;;;11.60;;
22965;SDS011;11649;48.090;9.754;2023-08-30T07:27:39;13.60;;;11.07;;
22965;SDS011;11649;48.090;9.754;2023-08-30T07:30:06;12.73;;;10.77;;
22965;SDS011;11649;48.090;9.754;2023-08-30T07:32:33;12.52;;;10.88;;
22965;SDS011;11649;48.090;9.754;2023-08-30T07:35:02;13.18;;;11.80;;
22965;SDS011;11649;48.090;9.754;2023-08-30T07:37:29;11.90;;;10.30;;
22965;SDS011;11649;48.090;9.754;2023-08-30T07:39:56;14.27;;;11.48;;
22965;SDS011;11649;48.090;9.754;2023-08-30T07:42:23;12.65;;;11.32;;
22965;SDS011;11649;48.090;9.754;2023-08-30T07:44:50;14.15;;;12.38;;
22965;SDS011;11649;48.090;9.754;2023-08-30T07:47:16;11.18;;;9.98;;
22965;SDS011;11649;48.090;9.754;2023-08-30T07:49:43;13.48;;;11.02;;
22965;SDS011;11649;48.090;9.754;2023-08-30T07:52:10;12.07;;;10.23;;
22965;SDS011;11649;48.090;9.754;2023-08-30T07:54:37;11.43;;;10.10;;
22965;SDS011;11649;48.090;9.754;2023-08-30T07:57:07;10.57;;;9.48;;
22965;SDS011;11649;48.090;9.754;2023-08-30T07:59:38;11.07;;;9.98;;
22965;SDS011;11649;48.090;9.754;2023-08-30T08:02:05;12.18;;;10.55;;
22965;SDS011;11649;48.090;9.754;2023-08-30T08:04:35;11.90;;;10.38;;
22965;SDS011;11649;48.090;9.754;2023-08-30T08:07:02;10.90;;;9.73;;
22965;SDS011;11649;48.090;9.754;2023-08-30T08:09:31;11.70;;;9.52;;
22965;SDS011;11649;48.090;9.754;2023-08-30T08:11:58;13.40;;;10.23;;
22965;SDS011;11649;48.090;9.754;2023-08-30T08:14:25;9.63;;;8.63;;
22965;SDS011;11649;48.090;9.754;2023-08-30T08:16:52;9.27;;;8.13;;
22965;SDS011;11649;48.090;9.754;2023-08-30T08:19:19;9.73;;;8.50;;
22965;SDS011;11649;48.090;9.754;2023-08-30T08:21:51;12.88;;;9.15;;
22965;SDS011;11649;48.090;9.754;2023-08-30T08:24:20;9.82;;;8.82;;
22965;SDS011;11649;48.090;9.754;2023-08-30T08:26:47;9.75;;;8.75;;
22965;SDS011;11649;48.090;9.754;2023-08-30T08:29:14;10.27;;;8.63;;
22965;SDS011;11649;48.090;9.754;2023-08-30T08:31:41;9.80;;;8.80;;
22965;SDS011;11649;48.090;9.754;2023-08-30T08:34:11;10.20;;;9.15;;
22965;SDS011;11649;48.090;9.754;2023-08-30T08:36:39;10.77;;;9.57;;
22965;SDS011;11649;48.090;9.754;2023-08-30T08:39:08;9.85;;;8.85;;
22965;SDS011;11649;48.090;9.754;2023-08-30T08:41:38;8.68;;;7.82;;
22965;SDS011;11649;48.090;9.754;2023-08-30T08:44:08;8.88;;;8.07;;
22965;SDS011;11649;48.090;9.754;2023-08-30T08:46:37;13.05;;;8.90;;
22965;SDS011;11649;48.090;9.754;2023-08-30T08:49:11;8.70;;;7.80;;
22965;SDS011;11649;48.090;9.754;2023-08-30T08:51:43;9.20;;;7.80;;
22965;SDS011;11649;48.090;9.754;2023-08-30T08:54:12;8.65;;;7.05;;
22965;SDS011;11649;48.090;9.754;2023-08-30T08:56:39;9.25;;;8.02;;
22965;SDS011;11649;48.090;9.754;2023-08-30T08:59:06;9.48;;;8.48;;
22965;SDS011;11649;48.090;9.754;2023-08-30T09:01:35;8.85;;;7.93;;
22965;SDS011;11649;48.090;9.754;2023-08-30T09:04:09;8.80;;;7.90;;
22965;SDS011;11649;48.090;9.754;2023-08-30T09:06:38;12.57;;;9.25;;
22965;SDS011;11649;48.090;9.754;2023-08-30T09:09:10;9.90;;;8.50;;
22965;SDS011;11649;48.090;9.754;2023-08-30T09:11:37;10.27;;;8.60;;
22965;SDS011;11649;48.090;9.754;2023-08-30T09:14:08;8.82;;;7.93;;
22965;SDS011;11649;48.090;9.754;2023-08-30T09:16:35;9.25;;;8.25;;
22965;SDS011;11649;48.090;9.754;2023-08-30T09:19:02;10.25;;;7.38;;
22965;SDS011;11649;48.090;9.754;2023-08-30T09:21:36;8.48;;;7.68;;
22965;SDS011;11649;48.090;9.754;2023-08-30T09:24:04;8.57;;;6.75;;
22965;SDS011;11649;48.090;9.754;2023-08-30T09:26:32;7.60;;;6.80;;
22965;SDS011;11649;48.090;9.754;2023-08-30T09:29:02;7.60;;;6.65;;
22965;SDS011;11649;48.090;9.754;2023-08-30T09:31:36;7.10;;;6.25;;
22965;SDS011;11649;48.090;9.754;2023-08-30T09:34:06;7.07;;;6.40;;
22965;SDS011;11649;48.090;9.754;2023-08-30T09:36:34;8.02;;;5.93;;
22965;SDS011;11649;48.090;9.754;2023-08-30T09:41:33;7.38;;;5.28;;
22965;SDS011;11649;48.090;9.754;2023-08-30T09:44:05;7.90;;;5.50;;
22965;SDS011;11649;48.090;9.754;2023-08-30T09:46:46;5.85;;;5.32;;
22965;SDS011;11649;48.090;9.754;2023-08-30T09:49:24;7.05;;;5.70;;
22965;SDS011;11649;48.090;9.754;2023-08-30T09:51:52;5.72;;;4.95;;
22965;SDS011;11649;48.090;9.754;2023-08-30T09:54:20;5.88;;;5.30;;
22965;SDS011;11649;48.090;9.754;2023-08-30T09:56:54;5.88;;;4.82;;
22965;SDS011;11649;48.090;9.754;2023-08-30T09:59:27;5.35;;;4.85;;
22965;SDS011;11649;48.090;9.754;2023-08-30T10:01:54;4.88;;;4.07;;
22965;SDS011;11649;48.090;9.754;2023-08-30T10:04:22;4.97;;;4.30;;
22965;SDS011;11649;48.090;9.754;2023-08-30T10:06:50;6.43;;;4.40;;
22965;SDS011;11649;48.090;9.754;2023-08-30T10:09:18;5.95;;;5.13;;
22965;SDS011;11649;48.090;9.754;2023-08-30T10:11:46;6.95;;;5.05;;
22965;SDS011;11649;48.090;9.754;2023-08-30T10:14:22;5.85;;;5.28;;
22965;SDS011;11649;48.090;9.754;2023-08-30T10:16:49;6.78;;;5.28;;
22965;SDS011;11649;48.090;9.754;2023-08-30T10:19:23;5.32;;;4.82;;
22965;SDS011;11649;48.090;9.754;2023-08-30T10:22:02;5.07;;;4.57;;
22965;SDS011;11649;48.090;9.754;2023-08-30T10:30:22;4.93;;;4.50;;
22965;SDS011;11649;48.090;9.754;2023-08-30T10:32:50;6.97;;;5.22;;
22965;SDS011;11649;48.090;9.754;2023-08-30T10:35:18;5.10;;;4.50;;
22965;SDS011;11649;48.090;9.754;2023-08-30T10:37:59;4.93;;;4.40;;
22965;SDS011;11649;48.090;9.754;2023-08-30T10:40:26;5.70;;;4.30;;
22965;SDS011;11649;48.090;9.754;2023-08-30T10:43:02;3.83;;;3.40;;
22965;SDS011;11649;48.090;9.754;2023-08-30T10:45:30;4.82;;;3.78;;
22965;SDS011;11649;48.090;9.754;2023-08-30T10:47:58;5.15;;;3.40;;
22965;SDS011;11649;48.090;9.754;2023-08-30T10:50:29;4.20;;;3.00;;
22965;SDS011;11649;48.090;9.754;2023-08-30T10:52:58;3.25;;;2.45;;
22965;SDS011;11649;48.090;9.754;2023-08-30T10:55:25;3.30;;;2.42;;
22965;SDS011;11649;48.090;9.754;2023-08-30T10:58:02;3.58;;;2.40;;
22965;SDS011;11649;48.090;9.754;2023-08-30T11:00:31;2.55;;;2.35;;
22965;SDS011;11649;48.090;9.754;2023-08-30T11:02:58;2.58;;;2.28;;
22965;SDS011;11649;48.090;9.754;2023-08-30T11:05:25;3.53;;;2.67;;
22965;SDS011;11649;48.090;9.754;2023-08-30T11:07:54;3.95;;;2.85;;
22965;SDS011;11649;48.090;9.754;2023-08-30T11:10:21;3.42;;;2.50;;
22965;SDS011;11649;48.090;9.754;2023-08-30T11:12:48;4.90;;;2.28;;
22965;SDS011;11649;48.090;9.754;2023-08-30T11:15:16;2.53;;;2.00;;
22965;SDS011;11649;48.090;9.754;2023-08-30T11:17:45;2.50;;;2.10;;
22965;SDS011;11649;48.090;9.754;2023-08-30T11:20:12;3.75;;;2.10;;
22965;SDS011;11649;48.090;9.754;2023-08-30T11:25:12;2.53;;;1.90;;
22965;SDS011;11649;48.090;9.754;2023-08-30T11:27:40;1.95;;;1.60;;
22965;SDS011;11649;48.090;9.754;2023-08-30T11:30:08;5.20;;;1.80;;
22965;SDS011;11649;48.090;9.754;2023-08-30T11:32:36;1.90;;;1.60;;
22965;SDS011;11649;48.090;9.754;2023-08-30T11:35:18;1.77;;;1.40;;
22965;SDS011;11649;48.090;9.754;2023-08-30T11:37:45;2.28;;;1.50;;
22965;SDS011;11649;48.090;9.754;2023-08-30T11:40:13;1.48;;;1.38;;
22965;SDS011;11649;48.090;9.754;2023-08-30T11:42:40;3.10;;;1.80;;
22965;SDS011;11649;48.090;9.754;2023-08-30T11:45:09;2.97;;;1.30;;
22965;SDS011;11649;48.090;9.754;2023-08-30T11:47:37;2.28;;;1.70;;
22965;SDS011;11649;48.090;9.754;2023-08-30T11:50:07;1.70;;;1.48;;
22965;SDS011;11649;48.090;9.754;2023-08-30T11:52:35;2.08;;;1.42;;
22965;SDS011;11649;48.090;9.754;2023-08-30T11:55:03;1.38;;;1.27;;
22965;SDS011;11649;48.090;9.754;2023-08-30T11:57:35;4.80;;;1.80;;
22965;SDS011;11649;48.090;9.754;2023-08-30T12:00:09;5.78;;;2.10;;
22965;SDS011;11649;48.090;9.754;2023-08-30T12:02:38;3.78;;;1.60;;
22965;SDS011;11649;48.090;9.754;2023-08-30T12:05:11;2.53;;;1.58;;
22965;SDS011;11649;48.090;9.754;2023-08-30T12:07:39;3.60;;;1.50;;
22965;SDS011;11649;48.090;9.754;2023-08-30T12:10:12;1.98;;;1.60;;
22965;SDS011;11649;48.090;9.754;2023-08-30T12:12:44;1.77;;;1.60;;
22965;SDS011;11649;48.090;9.754;2023-08-30T12:15:11;2.17;;;1.60;;
22965;SDS011;11649;48.090;9.754;2023-08-30T12:17:40;5.57;;;1.75;;
22965;SDS011;11649;48.090;9.754;2023-08-30T12:20:14;2.35;;;1.80;;
22965;SDS011;11649;48.090;9.754;2023-08-30T12:22:46;2.42;;;1.50;;
22965;SDS011;11649;48.090;9.754;2023-08-30T12:25:18;3.35;;;1.60;;
22965;SDS011;11649;48.090;9.754;2023-08-30T12:27:46;4.82;;;1.50;;
22965;SDS011;11649;48.090;9.754;2023-08-30T12:30:14;1.70;;;1.40;;
22965;SDS011;11649;48.090;9.754;2023-08-30T12:32:43;1.80;;;1.50;;
22965;SDS011;11649;48.090;9.754;2023-08-30T12:35:11;2.05;;;1.30;;
22965;SDS011;11649;48.090;9.754;2023-08-30T12:37:38;1.70;;;1.38;;
22965;SDS011;11649;48.090;9.754;2023-08-30T12:40:05;2.38;;;1.60;;
22965;SDS011;11649;48.090;9.754;2023-08-30T12:42:32;2.25;;;1.55;;
22965;SDS011;11649;48.090;9.754;2023-08-30T12:45:00;1.85;;;1.30;;
22965;SDS011;11649;48.090;9.754;2023-08-30T12:47:27;1.95;;;1.30;;
22965;SDS011;11649;48.090;9.754;2023-08-30T12:49:55;2.28;;;1.40;;
22965;SDS011;11649;48.090;9.754;2023-08-30T12:52:22;1.48;;;1.10;;
22965;SDS011;11649;48.090;9.754;2023-08-30T12:54:48;2.35;;;1.40;;
22965;SDS011;11649;48.090;9.754;2023-08-30T12:57:16;2.03;;;1.50;;
22965;SDS011;11649;48.090;9.754;2023-08-30T12:59:43;1.60;;;1.30;;
22965;SDS011;11649;48.090;9.754;2023-08-30T13:02:09;1.50;;;1.40;;
22965;SDS011;11649;48.090;9.754;2023-08-30T13:04:36;1.40;;;1.17;;
22965;SDS011;11649;48.090;9.754;2023-08-30T13:07:12;1.63;;;1.10;;
22965;SDS011;11649;48.090;9.754;2023-08-30T13:09:38;4.22;;;1.30;;
22965;SDS011;11649;48.090;9.754;2023-08-30T13:12:05;1.75;;;1.40;;
22965;SDS011;11649;48.090;9.754;2023-08-30T13:14:32;1.42;;;1.20;;
22965;SDS011;11649;48.090;9.754;2023-08-30T13:16:59;2.63;;;1.25;;
22965;SDS011;11649;48.090;9.754;2023-08-30T13:19:26;1.73;;;1.30;;
22965;SDS011;11649;48.090;9.754;2023-08-30T13:21:53;2.67;;;1.38;;
22965;SDS011;11649;48.090;9.754;2023-08-30T13:24:21;1.75;;;1.20;;
22965;SDS011;11649;48.090;9.754;2023-08-30T13:26:47;1.88;;;1.23;;
22965;SDS011;11649;48.090;9.754;2023-08-30T13:29:14;1.63;;;1.10;;
22965;SDS011;11649;48.090;9.754;2023-08-30T13:31:41;1.20;;;1.00;;
22965;SDS011;11649;48.090;9.754;2023-08-30T13:34:08;2.53;;;1.08;;
22965;SDS011;11649;48.090;9.754;2023-08-30T13:36:35;1.52;;;1.17;;
22965;SDS011;11649;48.090;9.754;2023-08-30T13:39:02;1.13;;;1.00;;
22965;SDS011;11649;48.090;9.754;2023-08-30T13:41:30;1.83;;;1.10;;
22965;SDS011;11649;48.090;9.754;2023-08-30T13:43:57;1.38;;;1.08;;
22965;SDS011;11649;48.090;9.754;2023-08-30T13:46:27;2.45;;;1.17;;
22965;SDS011;11649;48.090;9.754;2023-08-30T13:48:54;1.17;;;1.08;;
22965;SDS011;11649;48.090;9.754;2023-08-30T13:51:22;1.70;;;1.10;;
22965;SDS011;11649;48.090;9.754;2023-08-30T13:53:50;3.40;;;1.05;;
22965;SDS011;11649;48.090;9.754;2023-08-30T13:56:17;2.20;;;1.33;;
22965;SDS011;11649;48.090;9.754;2023-08-30T13:58:45;1.05;;;0.80;;
22965;SDS011;11649;48.090;9.754;2023-08-30T14:01:15;2.15;;;0.95;;
22965;SDS011;11649;48.090;9.754;2023-08-30T14:03:43;2.00;;;1.20;;
22965;SDS011;11649;48.090;9.754;2023-08-30T14:06:11;1.27;;;1.10;;
22965;SDS011;11649;48.090;9.754;2023-08-30T14:08:42;1.35;;;0.98;;
22965;SDS011;11649;48.090;9.754;2023-08-30T14:11:11;1.07;;;0.90;;
22965;SDS011;11649;48.090;9.754;2023-08-30T14:13:39;1.48;;;0.88;;
22965;SDS011;11649;48.090;9.754;2023-08-30T14:16:06;1.10;;;1.00;;
22965;SDS011;11649;48.090;9.754;2023-08-30T14:18:33;0.80;;;0.77;;
22965;SDS011;11649;48.090;9.754;2023-08-30T14:23:58;2.08;;;0.80;;
22965;SDS011;11649;48.090;9.754;2023-08-30T14:26:25;2.97;;;1.00;;
22965;SDS011;11649;48.090;9.754;2023-08-30T14:28:52;0.82;;;0.80;;
22965;SDS011;11649;48.090;9.754;2023-08-30T14:31:19;1.17;;;0.90;;
22965;SDS011;11649;48.090;9.754;2023-08-30T14:33:46;3.25;;;1.00;;
22965;SDS011;11649;48.090;9.754;2023-08-30T14:36:13;1.42;;;1.15;;
22965;SDS011;11649;48.090;9.754;2023-08-30T14:38:42;1.52;;;0.98;;
22965;SDS011;11649;48.090;9.754;2023-08-30T14:41:08;1.55;;;1.30;;
22965;SDS011;11649;48.090;9.754;2023-08-30T14:43:36;1.55;;;0.90;;
22965;SDS011;11649;48.090;9.754;2023-08-30T14:46:04;1.10;;;1.00;;
22965;SDS011;11649;48.090;9.754;2023-08-30T14:48:39;1.65;;;1.10;;
22965;SDS011;11649;48.090;9.754;2023-08-30T14:51:06;2.05;;;0.90;;
22965;SDS011;11649;48.090;9.754;2023-08-30T14:53:33;2.28;;;1.10;;
22965;SDS011;11649;48.090;9.754;2023-08-30T14:56:01;1.55;;;1.20;;
22965;SDS011;11649;48.090;9.754;2023-08-30T14:58:33;1.25;;;1.05;;